Time;durP1;ratioP1;P1;durP2;ratioP2;P2;SDS_P1;SDS_P2;PMS_P1;PMS_P2;Temp;Humidity;BMP_temperature;BMP_pressure;BME280_temperature;BME280_humidity;BME280_pressure;Samples;Min_cycle;Max_cycle;Signal;HPM_P1;HPM_P2
2021/06/24 00:00:27;;;;;;;15.55;10.32;;;;;;;18.45;76.08;100320.42;2086840;83;21053;-81
2021/06/24 00:03:31;;;;;;;13.40;10.03;;;;;;;18.47;76.02;100323.69;2087431;83;21059;-80
2021/06/24 00:06:33;;;;;;;21.37;11.15;;;;;;;18.51;75.87;100347.77;2077343;83;21029;-80
2021/06/24 00:09:35;;;;;;;13.48;10.05;;;;;;;18.53;75.79;100351.08;2083431;83;21026;-80
2021/06/24 00:12:36;;;;;;;14.75;10.30;;;;;;;18.55;75.83;100347.11;2086555;83;21023;-80
2021/06/24 00:15:39;;;;;;;16.25;9.85;;;;;;;18.62;75.89;100344.94;2077126;83;21053;-79
2021/06/24 00:18:41;;;;;;;13.83;9.38;;;;;;;18.64;75.69;100320.84;2077947;83;21043;-80
2021/06/24 00:21:42;;;;;;;17.27;10.13;;;;;;;18.62;75.63;100316.20;2078661;83;21502;-81
2021/06/24 00:24:44;;;;;;;20.75;10.60;;;;;;;18.58;75.52;100318.50;2085641;83;21004;-81
2021/06/24 00:27:45;;;;;;;15.08;9.23;;;;;;;18.59;75.47;100322.00;2082235;83;21026;-80
2021/06/24 00:30:49;;;;;;;18.67;10.78;;;;;;;18.59;75.42;100328.20;2085936;83;21532;-81
2021/06/24 00:33:55;;;;;;;12.70;10.08;;;;;;;18.59;75.40;100332.23;2084033;83;20988;-80
2021/06/24 00:36:54;;;;;;;18.07;10.25;;;;;;;18.58;75.33;100341.83;2081971;83;21042;-80
2021/06/24 00:39:56;;;;;;;17.65;11.70;;;;;;;18.54;75.33;100346.00;2079171;83;21029;-79
2021/06/24 00:42:58;;;;;;;17.65;11.28;;;;;;;18.53;75.32;100352.42;2078405;83;20963;-80
2021/06/24 00:46:00;;;;;;;20.62;10.20;;;;;;;18.54;75.36;100344.12;2082667;83;21088;-79
2021/06/24 00:49:03;;;;;;;20.08;11.33;;;;;;;18.59;75.31;100342.16;2077474;83;21518;-81
2021/06/24 00:52:05;;;;;;;19.57;11.50;;;;;;;18.58;75.24;100327.05;2083739;83;21035;-82
2021/06/24 00:55:09;;;;;;;19.00;11.40;;;;;;;18.50;75.25;100329.98;2083477;83;21034;-78
2021/06/24 00:58:29;;;;;;;16.70;11.50;;;;;;;18.47;75.31;100350.56;2077386;83;21010;-81
2021/06/24 01:01:30;;;;;;;16.02;10.65;;;;;;;18.53;75.40;100364.52;2077833;83;21171;-80
2021/06/24 01:04:34;;;;;;;15.93;11.15;;;;;;;18.61;75.30;100374.99;2078111;83;21537;-79
2021/06/24 01:07:35;;;;;;;16.65;10.10;;;;;;;18.69;75.27;100386.03;2083980;83;21114;-79
2021/06/24 01:10:49;;;;;;;18.92;10.78;;;;;;;18.74;75.24;100397.00;2076879;83;21035;-79
2021/06/24 01:13:51;;;;;;;13.13;10.28;;;;;;;18.74;75.21;100408.57;2065425;84;21089;-78
2021/06/24 01:16:55;;;;;;;18.07;10.15;;;;;;;18.76;75.19;100414.56;2087205;83;21470;-81
2021/06/24 01:19:57;;;;;;;17.50;10.50;;;;;;;18.79;75.24;100428.92;2075795;83;21479;-78
2021/06/24 01:23:00;;;;;;;15.13;11.45;;;;;;;18.83;75.24;100424.46;2076738;83;21061;-79
2021/06/24 01:26:02;;;;;;;17.25;10.78;;;;;;;18.84;75.31;100417.55;2085944;83;21076;-80
2021/06/24 01:29:04;;;;;;;19.40;10.30;;;;;;;18.86;75.32;100408.72;2080308;83;21014;-79
2021/06/24 01:32:06;;;;;;;16.55;9.88;;;;;;;18.86;75.22;100391.77;2081811;83;21078;-79
2021/06/24 01:35:10;;;;;;;19.17;11.08;;;;;;;18.87;75.26;100397.47;2088903;83;21088;-79
2021/06/24 01:38:12;;;;;;;15.50;10.23;;;;;;;18.86;75.17;100412.75;2082240;83;21041;-81
2021/06/24 01:41:30;;;;;;;19.02;10.95;;;;;;;18.86;75.17;100440.98;2083717;83;21006;-82
2021/06/24 01:44:36;;;;;;;14.45;10.53;;;;;;;18.83;75.38;100475.02;2080223;83;21031;-81
2021/06/24 01:47:38;;;;;;;15.70;11.05;;;;;;;18.67;75.82;100464.20;2079768;83;21112;-82
2021/06/24 01:50:40;;;;;;;16.20;9.58;;;;;;;18.46;76.66;100461.23;2078438;83;21550;-81
2021/06/24 01:53:42;;;;;;;14.23;9.68;;;;;;;18.32;77.68;100473.87;2084692;83;21049;-81
2021/06/24 01:56:43;;;;;;;12.68;7.92;;;;;;;18.22;77.36;100494.97;2075223;83;21604;-80
2021/06/24 01:59:46;;;;;;;8.65;6.62;;;;;;;18.15;78.37;100502.19;2087238;82;20998;-80
2021/06/24 02:02:49;;;;;;;6.92;5.67;;;;;;;18.04;78.56;100511.69;2087765;83;21150;-82
2021/06/24 02:05:57;;;;;;;8.08;6.30;;;;;;;17.98;78.72;100506.33;2078595;83;21015;-80
2021/06/24 02:08:59;;;;;;;9.88;6.08;;;;;;;17.92;78.98;100500.73;2075809;83;21051;-82
2021/06/24 02:12:15;;;;;;;11.08;7.22;;;;;;;17.87;79.21;100484.42;2063493;84;21050;-80
2021/06/24 02:15:19;;;;;;;9.85;6.62;;;;;;;17.87;79.34;100484.42;2079613;83;21078;-81
2021/06/24 02:18:21;;;;;;;10.15;6.72;;;;;;;17.89;79.48;100527.17;2077367;83;21035;-81
2021/06/24 02:21:26;;;;;;;10.98;6.53;;;;;;;17.88;80.06;100582.73;2076101;83;21498;-81
2021/06/24 02:24:35;;;;;;;17.57;7.87;;;;;;;17.76;81.57;100621.05;2092064;83;21148;-79
2021/06/24 02:27:37;;;;;;;8.28;6.62;;;;;;;17.57;82.50;100571.16;2085527;83;21069;-82
2021/06/24 05:34:47;;;;;;;8.10;6.83;;;;;;;17.81;86.71;100204.78;2157960;80;21038;-85
2021/06/24 05:37:49;;;;;;;8.55;7.12;;;;;;;17.89;86.73;100203.20;2126164;81;21100;-76
2021/06/24 05:40:51;;;;;;;9.50;6.78;;;;;;;17.96;86.70;100191.61;2130319;81;21007;-78
2021/06/24 05:43:53;;;;;;;13.28;7.37;;;;;;;18.02;86.53;100192.09;2126433;81;21000;-72
2021/06/24 05:46:55;;;;;;;8.85;6.12;;;;;;;18.07;86.45;100196.31;2126622;82;21037;-72
2021/06/24 05:49:57;;;;;;;8.98;6.30;;;;;;;18.13;86.45;100200.33;2127009;81;21652;-72
2021/06/24 05:52:58;;;;;;;7.00;6.30;;;;;;;18.21;86.26;100206.47;2126908;81;21147;-72
2021/06/24 05:56:03;;;;;;;7.10;6.40;;;;;;;18.26;86.13;100208.81;2126767;82;21049;-72
2021/06/24 05:59:05;;;;;;;7.33;6.42;;;;;;;18.32;86.02;100186.45;2131412;81;21076;-73
2021/06/24 06:02:08;;;;;;;7.53;5.75;;;;;;;18.38;85.96;100188.28;2127877;81;21001;-83
2021/06/24 06:05:11;;;;;;;8.18;6.12;;;;;;;18.46;85.89;100198.48;2127653;81;21133;-75
2021/06/24 06:08:13;;;;;;;7.35;6.12;;;;;;;18.52;85.74;100205.66;2128086;81;21104;-85
2021/06/24 06:11:15;;;;;;;7.45;6.17;;;;;;;18.51;85.43;100205.38;2126300;81;21043;-81
2021/06/24 06:14:16;;;;;;;6.97;5.33;;;;;;;18.52;85.48;100204.32;2130859;81;22330;-73
2021/06/24 06:17:18;;;;;;;6.67;5.90;;;;;;;18.57;85.46;100211.22;2126651;81;21026;-75
2021/06/24 06:20:20;;;;;;;8.25;6.55;;;;;;;18.61;85.44;100209.73;2128047;81;21064;-72
2021/06/24 06:23:24;;;;;;;7.80;6.03;;;;;;;18.67;85.43;100215.60;2127272;81;21021;-84
2021/06/24 06:26:26;;;;;;;5.80;5.22;;;;;;;18.72;85.35;100212.24;2129483;81;21087;-72
2021/06/24 06:29:28;;;;;;;8.93;5.67;;;;;;;18.73;85.23;100213.91;2130802;81;21156;-73
2021/06/24 06:32:32;;;;;;;6.10;5.37;;;;;;;18.78;85.28;100210.91;2133035;81;22381;-77
2021/06/24 06:35:34;;;;;;;7.30;6.03;;;;;;;18.84;85.13;100213.73;2136293;80;21418;-75
2021/06/24 06:38:37;;;;;;;6.67;5.42;;;;;;;18.92;85.13;100228.25;2173755;80;21050;-74
2021/06/24 06:41:38;;;;;;;5.30;4.72;;;;;;;18.96;84.86;100224.10;2161007;80;21032;-73
2021/06/24 06:44:40;;;;;;;6.78;4.83;;;;;;;19.00;84.54;100225.30;2163036;80;21150;-84
2021/06/24 06:47:47;;;;;;;8.35;4.20;;;;;;;19.00;84.39;100227.45;2163679;80;20988;-84
2021/06/24 06:50:50;;;;;;;9.08;5.80;;;;;;;18.99;84.41;100238.45;2160987;80;21058;-73
2021/06/24 06:53:51;;;;;;;9.90;5.50;;;;;;;19.03;84.59;100236.45;2168612;80;20961;-77
2021/06/24 06:56:53;;;;;;;7.92;4.85;;;;;;;19.10;84.40;100247.67;2170819;80;20977;-80
2021/06/24 06:59:55;;;;;;;7.20;4.50;;;;;;;19.08;83.86;100238.47;2167506;80;21440;-72
2021/06/24 07:02:58;;;;;;;6.28;4.42;;;;;;;19.11;84.02;100233.99;2161345;80;22010;-73
2021/06/24 07:06:00;;;;;;;7.72;5.05;;;;;;;19.21;83.89;100241.58;2164829;80;20944;-73
2021/06/24 07:09:04;;;;;;;7.83;4.97;;;;;;;19.26;83.89;100243.91;2170188;80;21057;-84
2021/06/24 07:12:07;;;;;;;7.78;4.83;;;;;;;19.34;83.69;100248.16;2164761;80;21019;-74
2021/06/24 07:15:10;;;;;;;6.17;5.45;;;;;;;19.41;83.44;100242.74;2164591;80;21466;-73
2021/06/24 07:18:12;;;;;;;9.70;6.50;;;;;;;19.42;83.12;100242.50;2165259;80;21463;-75
2021/06/24 07:21:14;;;;;;;9.18;6.67;;;;;;;19.51;83.19;100247.08;2158112;80;21009;-77
2021/06/24 07:24:15;;;;;;;8.98;6.00;;;;;;;19.59;83.01;100248.13;2159155;80;21001;-73
2021/06/24 07:27:17;;;;;;;7.28;5.78;;;;;;;19.63;82.65;100246.66;2162168;80;21048;-70
2021/06/24 07:30:21;;;;;;;10.53;7.15;;;;;;;19.71;82.64;100255.00;2162503;80;20978;-81
2021/06/24 07:33:24;;;;;;;9.70;6.78;;;;;;;19.74;82.21;100249.17;2164444;80;21076;-72
2021/06/24 07:36:26;;;;;;;8.83;6.62;;;;;;;19.80;82.19;100256.34;2170946;80;21081;-72
2021/06/24 07:39:28;;;;;;;11.18;8.20;;;;;;;19.89;82.21;100256.87;2172598;80;21024;-77
2021/06/24 07:42:29;;;;;;;13.72;8.40;;;;;;;19.93;81.80;100249.47;2166425;80;21130;-80
2021/06/24 07:45:31;;;;;;;13.95;9.45;;;;;;;20.04;81.89;100245.18;2169392;80;20974;-74
2021/06/24 07:48:36;;;;;;;13.48;9.95;;;;;;;20.22;81.55;100240.84;2170178;80;21060;-75
2021/06/24 07:51:37;;;;;;;13.95;10.03;;;;;;;20.36;81.25;100249.05;2178869;80;20950;-73
2021/06/24 07:54:39;;;;;;;11.50;9.73;;;;;;;20.45;80.69;100248.20;2176867;80;20997;-74
2021/06/24 07:57:41;;;;;;;11.73;9.58;;;;;;;20.56;80.71;100246.11;2166328;80;20996;-73
2021/06/24 08:00:42;;;;;;;14.40;8.28;;;;;;;20.73;80.81;100247.63;2167192;80;21025;-73
2021/06/24 08:03:44;;;;;;;12.68;8.70;;;;;;;20.91;80.47;100250.23;2163994;80;20965;-77
2021/06/24 08:06:46;;;;;;;11.83;8.93;;;;;;;20.80;79.67;100259.11;2175587;80;21524;-74
2021/06/24 08:09:47;;;;;;;12.82;9.53;;;;;;;20.67;79.39;100257.98;2165449;80;21090;-73
2021/06/24 08:12:50;;;;;;;11.28;8.93;;;;;;;20.61;79.47;100254.33;2163944;80;21006;-72
2021/06/24 08:15:53;;;;;;;15.93;9.33;;;;;;;20.70;79.62;100262.91;2177457;80;20961;-78
2021/06/24 08:18:55;;;;;;;14.23;9.00;;;;;;;20.96;79.81;100261.15;2157043;80;21562;-73
2021/06/24 08:21:59;;;;;;;10.53;8.63;;;;;;;21.30;79.16;100250.63;2153555;80;21459;-72
2021/06/24 08:25:01;;;;;;;11.50;8.80;;;;;;;21.48;78.68;100242.47;2167410;80;21039;-76
2021/06/24 08:28:06;;;;;;;11.12;8.93;;;;;;;21.66;78.37;100252.30;2176823;80;21050;-72
2021/06/24 08:31:08;;;;;;;10.05;8.98;;;;;;;21.77;77.79;100256.58;2168302;80;21620;-74
2021/06/24 08:34:10;;;;;;;11.38;9.60;;;;;;;22.05;77.92;100263.39;2171612;80;21440;-73
2021/06/24 08:37:11;;;;;;;11.10;8.83;;;;;;;22.35;76.86;100255.08;2177803;80;21538;-72
2021/06/24 08:40:15;;;;;;;9.55;7.65;;;;;;;22.47;76.45;100251.51;2171849;80;21006;-85
2021/06/24 08:43:17;;;;;;;10.85;8.13;;;;;;;22.64;76.32;100263.20;2164559;80;21645;-88
2021/06/24 08:46:21;;;;;;;10.72;8.38;;;;;;;22.78;75.50;100261.02;2177890;80;20965;-74
2021/06/24 08:49:26;;;;;;;15.13;8.90;;;;;;;22.86;74.91;100263.84;2167939;80;21006;-75
2021/06/24 08:52:29;;;;;;;14.00;9.05;;;;;;;22.93;74.22;100261.27;2174406;80;21008;-74
2021/06/24 08:55:40;;;;;;;9.88;8.28;;;;;;;23.02;74.50;100269.83;2165754;80;21078;-74
2021/06/24 08:58:40;;;;;;;11.63;7.67;;;;;;;23.21;74.03;100273.94;2175282;80;21086;-74
2021/06/24 09:01:57;;;;;;;9.30;7.22;;;;;;;23.14;73.16;100267.86;2179974;80;21060;-78
2021/06/24 09:04:58;;;;;;;8.28;7.30;;;;;;;23.12;73.00;100269.20;2173337;80;21078;-77
2021/06/24 09:08:00;;;;;;;12.40;8.33;;;;;;;23.14;72.48;100262.45;2175774;80;20964;-74
2021/06/24 09:11:23;;;;;;;10.30;7.12;;;;;;;23.35;72.26;100256.83;2167036;80;21047;-74
2021/06/24 09:14:25;;;;;;;10.48;8.18;;;;;;;23.59;71.77;100265.56;2173626;80;20954;-74
2021/06/24 09:17:43;;;;;;;10.10;7.47;;;;;;;23.57;71.38;100269.08;2151946;80;20996;-84
2021/06/24 09:20:45;;;;;;;10.45;6.78;;;;;;;23.46;70.80;100271.34;2163049;80;21043;-86
2021/06/24 09:23:49;;;;;;;10.25;6.97;;;;;;;23.55;70.52;100269.03;2175121;80;21006;-85
2021/06/24 09:26:50;;;;;;;8.38;7.47;;;;;;;23.56;70.48;100278.25;2163706;80;21517;-86
2021/06/24 09:30:03;;;;;;;12.13;8.73;;;;;;;23.63;70.18;100275.38;2175810;80;21000;-81
2021/06/24 09:33:17;;;;;;;11.75;7.97;;;;;;;23.54;69.62;100274.14;2170050;80;21103;-74
2021/06/24 09:36:38;;;;;;;12.98;7.95;;;;;;;23.41;69.98;100273.44;2156381;80;21847;-88
2021/06/24 09:39:45;;;;;;;10.05;6.72;;;;;;;23.41;69.48;100279.39;2147470;81;21059;-76
2021/06/24 09:42:43;;;;;;;9.35;8.13;;;;;;;23.42;69.55;100281.83;2129958;81;21010;-74
2021/06/24 09:46:11;;;;;;;13.45;7.72;;;;;;;23.55;69.64;100269.03;2126527;81;21065;-75
2021/06/24 09:49:11;;;;;;;7.10;6.40;;;;;;;23.95;69.08;100272.86;2126531;81;21512;-76
2021/06/24 09:52:17;;;;;;;9.20;7.20;;;;;;;24.27;68.64;100274.35;2130658;81;21124;-76
2021/06/24 09:55:18;;;;;;;7.55;6.75;;;;;;;24.31;68.22;100276.02;2122052;81;21489;-78
2021/06/24 09:58:20;;;;;;;12.98;7.17;;;;;;;24.21;67.41;100277.23;2126541;81;21024;-74
2021/06/24 10:01:46;;;;;;;8.85;7.65;;;;;;;24.16;67.63;100272.05;2124357;81;20962;-73
2021/06/24 10:04:49;;;;;;;9.13;7.12;;;;;;;24.15;67.50;100277.70;2130174;81;21067;-75
2021/06/24 10:07:50;;;;;;;7.00;6.05;;;;;;;24.19;67.31;100274.80;2127428;81;21040;-75
2021/06/24 10:10:52;;;;;;;6.72;6.03;;;;;;;24.22;66.95;100274.83;2132660;81;21006;-75
2021/06/24 10:13:53;;;;;;;7.15;5.97;;;;;;;24.34;67.28;100269.53;2130973;81;21567;-77
2021/06/24 10:16:58;;;;;;;6.55;5.75;;;;;;;24.83;66.62;100263.27;2132595;83;21334;-76
2021/06/24 10:19:59;;;;;;;10.10;6.42;;;;;;;24.97;65.72;100269.09;2123370;81;21816;-75
2021/06/24 10:23:11;;;;;;;10.53;6.28;;;;;;;24.94;65.45;100266.35;2125521;81;20974;-75
2021/06/24 10:26:14;;;;;;;6.85;6.15;;;;;;;25.03;65.53;100259.39;2115309;83;21161;-75
2021/06/24 10:29:19;;;;;;;10.32;8.65;;;;;;;25.41;65.66;100252.63;2132676;81;21504;-75
2021/06/24 10:32:28;;;;;;;8.60;7.67;;;;;;;25.69;64.88;100252.25;2128569;81;21493;-75
2021/06/24 10:35:39;;;;;;;7.72;6.83;;;;;;;26.09;64.33;100244.58;2130266;81;21076;-75
2021/06/24 10:38:42;;;;;;;10.65;6.60;;;;;;;26.18;63.55;100250.31;2160912;80;21030;-81
2021/06/24 10:42:12;;;;;;;9.55;6.00;;;;;;;26.52;63.10;100241.98;2167552;80;21016;-89
2021/06/24 10:45:17;;;;;;;8.13;5.83;;;;;;;26.83;62.09;100239.30;2168567;80;21003;-74
2021/06/24 10:48:26;;;;;;;9.43;6.85;;;;;;;27.03;61.47;100241.20;2169717;80;20957;-80
2021/06/24 10:51:33;;;;;;;7.47;5.30;;;;;;;27.07;60.95;100243.67;2168978;80;21113;-75
2021/06/24 10:54:42;;;;;;;14.58;5.45;;;;;;;27.09;60.92;100243.38;2167324;80;21063;-75
2021/06/24 10:57:44;;;;;;;7.57;5.60;;;;;;;27.02;60.48;100245.02;2181415;80;21126;-75
2021/06/24 11:00:48;;;;;;;8.80;5.83;;;;;;;26.80;60.51;100241.20;2168548;80;21016;-77
2021/06/24 11:03:51;;;;;;;9.48;6.60;;;;;;;27.04;61.44;100233.33;2169830;80;22416;-75
2021/06/24 11:06:54;;;;;;;6.95;5.45;;;;;;;27.49;61.10;100227.02;2169930;80;21058;-80
2021/06/24 11:10:26;;;;;;;9.78;5.33;;;;;;;27.62;58.90;100224.27;2167376;80;20994;-88
2021/06/24 11:13:42;;;;;;;10.55;5.95;;;;;;;27.41;58.98;100226.77;2161849;80;20976;-76
2021/06/24 11:16:45;;;;;;;7.97;6.40;;;;;;;27.46;58.43;100214.50;2168682;80;21035;-77
2021/06/24 11:20:17;;;;;;;12.95;6.40;;;;;;;27.44;58.69;100221.58;2164797;80;21568;-83
2021/06/24 11:23:38;;;;;;;7.97;6.80;;;;;;;27.63;58.20;100220.44;2158470;80;21046;-79
2021/06/24 11:26:51;;;;;;;8.73;5.80;;;;;;;27.27;58.21;100219.16;2164961;80;21018;-80
2021/06/24 11:29:52;;;;;;;12.07;7.05;;;;;;;26.97;57.93;100217.80;2163176;80;21483;-73
2021/06/24 11:32:54;;;;;;;10.30;6.40;;;;;;;26.98;57.96;100218.09;2161373;80;20982;-77
2021/06/24 11:36:11;;;;;;;8.98;6.60;;;;;;;26.98;58.31;100218.09;2150495;80;21133;-86
2021/06/24 11:39:11;;;;;;;8.73;6.30;;;;;;;26.96;58.80;100223.79;2130588;83;21068;-74
2021/06/24 11:42:21;;;;;;;12.80;6.72;;;;;;;27.23;58.37;100219.45;2125178;81;21111;-74
2021/06/24 11:45:26;;;;;;;8.18;6.00;;;;;;;27.48;58.54;100217.73;2123711;81;21790;-76
2021/06/24 11:48:27;;;;;;;8.00;5.50;;;;;;;27.74;58.18;100217.69;2130056;81;21607;-76
2021/06/24 12:01:55;;;;;;;10.15;8.03;;;;;;;27.08;56.67;100217.25;2126367;81;21096;-87
2021/06/24 12:04:57;;;;;;;9.43;7.17;;;;;;;26.84;57.46;100225.98;2126288;81;21107;-77
2021/06/24 12:07:58;;;;;;;10.13;7.33;;;;;;;26.90;57.95;100219.99;2126454;81;21489;-73
2021/06/24 12:11:12;;;;;;;11.03;7.62;;;;;;;26.93;58.00;100220.81;2129372;81;21108;-76
2021/06/24 12:14:29;;;;;;;11.38;7.97;;;;;;;27.21;57.50;100216.17;2126787;82;21104;-75
2021/06/24 12:17:38;;;;;;;10.23;8.23;;;;;;;27.31;57.44;100217.23;2127724;81;21017;-81
2021/06/24 12:20:42;;;;;;;8.93;5.97;;;;;;;27.24;57.45;100210.17;2126539;81;21123;-74
2021/06/24 12:23:50;;;;;;;8.25;6.45;;;;;;;27.25;57.35;100205.54;2131233;81;21103;-74
2021/06/24 12:26:52;;;;;;;7.55;6.28;;;;;;;27.46;56.87;100200.88;2126715;83;21052;-75
2021/06/24 12:29:58;;;;;;;10.48;6.30;;;;;;;27.73;57.43;100197.77;2123841;81;21445;-73
2021/06/24 12:33:06;;;;;;;8.85;6.33;;;;;;;27.84;56.76;100199.94;2126070;81;21602;-76
2021/06/24 12:36:07;;;;;;;9.10;6.33;;;;;;;27.80;56.57;100194.80;2127469;81;21521;-73
2021/06/24 12:39:12;;;;;;;9.03;5.90;;;;;;;27.66;56.71;100207.62;2123977;82;21664;-75
2021/06/24 12:42:14;;;;;;;7.67;4.97;;;;;;;27.64;56.88;100213.88;2118974;82;21540;-76
2021/06/24 12:45:19;;;;;;;7.12;4.65;;;;;;;27.53;56.25;100216.92;2122056;82;20978;-76
2021/06/24 12:48:40;;;;;;;6.85;5.62;;;;;;;27.24;56.01;100212.91;2122724;82;21013;-73
2021/06/24 12:51:43;;;;;;;5.72;5.20;;;;;;;27.05;56.45;100215.34;2115538;82;21037;-73
2021/06/24 12:54:44;;;;;;;9.50;5.80;;;;;;;26.94;57.10;100214.27;2123621;82;21085;-73
2021/06/24 12:57:53;;;;;;;9.75;6.67;;;;;;;27.04;57.25;100208.82;2119383;82;21077;-74
2021/06/24 13:01:16;;;;;;;7.83;6.03;;;;;;;27.03;57.17;100206.65;2117044;82;20990;-74
2021/06/24 13:04:21;;;;;;;7.58;6.10;;;;;;;27.00;57.36;100203.63;2120399;82;21548;-74
2021/06/24 13:07:26;;;;;;;10.48;6.40;;;;;;;27.02;57.34;100209.63;2119528;82;21061;-73
2021/06/24 13:10:26;;;;;;;7.10;5.70;;;;;;;27.02;56.84;100210.44;2120941;82;21058;-72
2021/06/24 13:13:33;;;;;;;8.28;5.45;;;;;;;26.89;57.03;100211.02;2118619;83;21013;-72
2021/06/24 13:16:49;;;;;;;9.50;5.58;;;;;;;26.55;56.00;100206.63;2121290;82;21607;-73
2021/06/24 13:19:54;;;;;;;6.58;5.00;;;;;;;26.24;57.24;100212.53;2116166;82;21069;-72
2021/06/24 13:23:11;;;;;;;6.35;4.40;;;;;;;25.74;57.92;100210.71;2120780;82;21563;-73
2021/06/24 13:26:20;;;;;;;9.20;5.40;;;;;;;25.62;58.30;100210.09;2114955;82;21041;-72
2021/06/24 13:29:24;;;;;;;6.93;5.43;;;;;;;25.60;58.22;100206.30;2120588;82;21010;-73
2021/06/24 13:32:44;;;;;;;5.58;4.85;;;;;;;25.62;58.48;100212.30;2118252;82;20994;-72
2021/06/24 13:35:46;;;;;;;6.80;5.72;;;;;;;25.59;58.41;100200.56;2118810;82;21006;-74
2021/06/24 13:38:57;;;;;;;5.50;4.58;;;;;;;25.61;58.89;100207.11;2135774;81;21058;-72
2021/06/24 13:42:00;;;;;;;8.35;4.92;;;;;;;25.73;59.18;100195.47;2146362;81;21063;-72
2021/06/24 13:45:02;;;;;;;6.58;4.83;;;;;;;25.98;59.16;100187.17;2142435;81;20988;-73
2021/06/24 13:48:05;;;;;;;8.30;5.25;;;;;;;26.03;58.68;100192.09;2151095;81;21066;-72
2021/06/24 13:51:09;;;;;;;8.90;5.05;;;;;;;26.04;58.97;100184.74;2142625;81;21090;-72
2021/06/24 13:54:13;;;;;;;5.22;4.20;;;;;;;26.04;58.37;100186.91;2141116;81;21025;-72
2021/06/24 13:57:19;;;;;;;6.58;4.80;;;;;;;25.93;58.33;100182.53;2146888;81;21050;-79
2021/06/24 14:00:20;;;;;;;5.83;4.75;;;;;;;25.79;58.26;100180.84;2149047;81;21029;-73
2021/06/24 14:03:22;;;;;;;6.92;4.85;;;;;;;25.67;58.27;100178.88;2148584;81;20923;-72
2021/06/24 14:06:25;;;;;;;7.35;4.45;;;;;;;25.69;59.07;100183.52;2135183;81;21044;-74
2021/06/24 14:09:26;;;;;;;4.87;3.95;;;;;;;25.66;59.15;100171.27;2144514;81;20988;-73
2021/06/24 14:12:28;;;;;;;6.83;4.60;;;;;;;25.70;56.98;100162.84;2143579;81;20982;-74
2021/06/24 14:15:30;;;;;;;6.35;4.72;;;;;;;25.55;58.47;100166.06;2147124;81;21109;-74
2021/06/24 14:18:31;;;;;;;8.78;4.62;;;;;;;25.68;59.01;100158.25;2142658;81;21062;-72
2021/06/24 14:21:33;;;;;;;8.90;4.87;;;;;;;25.72;58.33;100156.62;2135714;81;20946;-79
2021/06/24 14:24:35;;;;;;;6.22;4.30;;;;;;;25.69;58.76;100159.05;2135455;81;21020;-72
2021/06/24 14:27:38;;;;;;;5.30;4.67;;;;;;;25.67;58.41;100154.42;2142727;81;21097;-72
2021/06/24 14:30:40;;;;;;;6.40;5.05;;;;;;;25.39;58.17;100157.83;2153107;81;21030;-73
2021/06/24 14:33:44;;;;;;;5.28;4.78;;;;;;;25.27;58.35;100155.87;2140744;81;20994;-73
2021/06/24 14:36:46;;;;;;;6.87;4.95;;;;;;;25.29;58.99;100153.72;2142693;81;21002;-73
2021/06/24 14:39:48;;;;;;;6.17;5.15;;;;;;;25.36;59.34;100155.64;2149280;80;21506;-75
2021/06/24 14:42:49;;;;;;;7.55;6.10;;;;;;;25.47;59.18;100146.45;2164100;81;21676;-72
2021/06/24 14:45:54;;;;;;;9.23;5.53;;;;;;;25.48;59.61;100152.19;2153213;80;21117;-73
2021/06/24 14:48:56;;;;;;;8.60;5.65;;;;;;;25.51;59.56;100145.41;2149890;81;21026;-80
2021/06/24 14:51:59;;;;;;;7.65;6.10;;;;;;;25.48;59.21;100144.04;2153967;80;21475;-79
2021/06/24 14:55:00;;;;;;;8.70;5.80;;;;;;;25.46;59.29;100140.77;2160979;81;21055;-70
2021/06/24 14:58:04;;;;;;;8.10;5.30;;;;;;;25.46;58.86;100138.05;2153847;81;21135;-72
2021/06/24 15:01:06;;;;;;;10.63;5.83;;;;;;;25.42;59.18;100138.28;2153404;81;21079;-73
2021/06/24 15:04:07;;;;;;;10.85;5.53;;;;;;;25.37;59.15;100135.56;2161675;81;21412;-75
2021/06/24 15:07:09;;;;;;;8.43;6.22;;;;;;;25.30;59.66;100126.83;2164249;80;20978;-75
2021/06/24 15:10:15;;;;;;;8.13;6.55;;;;;;;25.18;59.82;100123.52;2151159;81;21552;-77
2021/06/24 15:13:17;;;;;;;7.33;6.60;;;;;;;25.14;59.85;100129.98;2157280;80;21464;-77
2021/06/24 15:16:18;;;;;;;7.37;6.33;;;;;;;25.08;60.53;100127.48;2152202;80;21068;-77
2021/06/24 15:19:22;;;;;;;10.10;6.40;;;;;;;25.10;60.37;100126.15;2152988;80;20976;-78
2021/06/24 15:22:23;;;;;;;7.83;6.72;;;;;;;24.97;60.40;100127.41;2154872;81;20991;-78
2021/06/24 15:25:27;;;;;;;7.17;6.33;;;;;;;24.86;60.73;100118.12;2148568;81;21057;-76
2021/06/24 15:28:29;;;;;;;11.85;6.87;;;;;;;24.85;60.99;100115.14;2155012;81;21450;-79
2021/06/24 15:31:30;;;;;;;9.35;6.60;;;;;;;24.92;61.37;100108.41;2153981;81;21080;-78
2021/06/24 15:34:33;;;;;;;7.08;6.12;;;;;;;24.98;60.91;100114.69;2158902;80;20932;-77
2021/06/24 15:37:35;;;;;;;9.65;7.47;;;;;;;24.97;60.66;100107.06;2160459;80;21018;-78
2021/06/24 15:40:37;;;;;;;12.58;8.10;;;;;;;24.92;60.25;100104.85;2181520;80;21568;-79
2021/06/24 15:43:38;;;;;;;12.63;6.83;;;;;;;24.82;60.67;100106.44;2161928;80;21680;-79
2021/06/24 15:46:41;;;;;;;14.50;7.67;;;;;;;24.76;60.66;100103.95;2167500;80;21015;-78
2021/06/24 15:49:46;;;;;;;10.18;7.58;;;;;;;24.69;60.65;100103.34;2175253;80;21016;-78
2021/06/24 15:52:48;;;;;;;9.53;7.28;;;;;;;24.59;60.57;100102.20;2167914;80;21544;-78
2021/06/24 15:55:52;;;;;;;10.00;7.45;;;;;;;24.44;60.94;100093.96;2159531;80;21067;-79
2021/06/24 15:58:53;;;;;;;8.00;7.15;;;;;;;24.41;60.97;100083.58;2171088;80;21089;-79
2021/06/24 16:01:55;;;;;;;11.15;8.53;;;;;;;24.34;61.15;100077.03;2176645;80;21126;-79
2021/06/24 16:04:56;;;;;;;8.73;7.87;;;;;;;24.24;61.00;100075.58;2163075;80;21536;-75
2021/06/24 16:07:58;;;;;;;10.05;7.92;;;;;;;24.20;61.50;100067.69;2167396;80;20968;-80
2021/06/24 16:10:59;;;;;;;8.35;6.72;;;;;;;24.24;61.65;100061.20;2171371;80;21042;-75
2021/06/24 16:14:03;;;;;;;8.83;7.75;;;;;;;24.23;61.21;100060.94;2163793;80;21112;-79
2021/06/24 16:17:05;;;;;;;8.33;7.53;;;;;;;24.25;61.63;100065.58;2170662;80;20985;-77
2021/06/24 16:20:14;;;;;;;10.35;7.10;;;;;;;24.30;61.85;100064.23;2169328;80;21035;-77
2021/06/24 16:23:16;;;;;;;9.13;7.20;;;;;;;24.25;61.47;100063.67;2179583;80;21001;-76
2021/06/24 16:26:18;;;;;;;11.53;6.60;;;;;;;24.18;61.41;100079.86;2171848;80;21010;-79
2021/06/24 16:29:19;;;;;;;10.28;7.42;;;;;;;24.03;61.47;100079.20;2162488;80;21007;-77
2021/06/24 16:32:21;;;;;;;11.18;7.75;;;;;;;23.91;61.84;100082.06;2164386;80;21627;-77
2021/06/24 16:35:25;;;;;;;10.05;8.15;;;;;;;23.88;62.16;100075.80;2167481;80;21085;-77
2021/06/24 16:38:27;;;;;;;11.00;8.23;;;;;;;23.86;62.08;100063.86;2162312;80;21489;-78
2021/06/24 16:41:29;;;;;;;13.38;7.92;;;;;;;23.85;62.21;100075.78;2153662;81;21053;-77
2021/06/24 16:44:30;;;;;;;9.90;8.33;;;;;;;23.84;62.17;100073.31;2152695;81;21031;-76
2021/06/24 16:47:32;;;;;;;11.25;8.50;;;;;;;23.78;62.33;100070.27;2152950;81;21083;-76
2021/06/24 16:50:34;;;;;;;9.63;8.63;;;;;;;23.67;62.41;100068.77;2151379;81;21040;-76
2021/06/24 16:53:36;;;;;;;10.00;9.00;;;;;;;23.54;62.55;100086.78;2146581;81;21106;-76
2021/06/24 16:56:37;;;;;;;9.58;8.58;;;;;;;23.42;62.60;100095.02;2153285;81;21068;-76
2021/06/24 16:59:39;;;;;;;11.75;9.25;;;;;;;23.33;62.93;100103.30;2153199;81;20977;-75
2021/06/24 17:02:40;;;;;;;14.43;8.90;;;;;;;23.31;63.04;100110.03;2154902;81;21022;-75
2021/06/24 17:05:43;;;;;;;11.03;8.65;;;;;;;23.27;63.18;100128.67;2151356;81;21039;-77
2021/06/24 17:08:44;;;;;;;12.60;8.03;;;;;;;23.21;62.96;100122.91;2155137;81;21656;-76
2021/06/24 17:11:49;;;;;;;9.35;8.25;;;;;;;23.12;63.09;100117.65;2154633;81;21016;-77
2021/06/24 17:14:50;;;;;;;9.35;8.45;;;;;;;23.08;63.14;100120.55;2155163;81;20989;-77
2021/06/24 17:17:52;;;;;;;10.70;8.68;;;;;;;23.01;63.25;100136.44;2162861;81;21073;-77
2021/06/24 17:20:56;;;;;;;9.75;7.80;;;;;;;22.93;63.28;100137.36;2143036;81;21020;-77
2021/06/24 17:23:59;;;;;;;9.73;8.03;;;;;;;22.83;63.45;100152.88;2155032;81;21433;-76
2021/06/24 17:27:03;;;;;;;10.68;8.28;;;;;;;22.78;63.55;100163.65;2155946;81;21475;-74